sensor_id;sensor_type;location;lat;lon;timestamp;P1;durP1;ratioP1;P2;durP2;ratioP2
76604;SDS011;65496;50.978;16.998;2023-02-12T00:00:47;3.40;;;2.60;;
76604;SDS011;65496;50.978;16.998;2023-02-12T00:03:33;3.67;;;3.35;;
76604;SDS011;65496;50.978;16.998;2023-02-12T00:05:59;4.00;;;3.10;;
76604;SDS011;65496;50.978;16.998;2023-02-12T00:08:26;3.00;;;2.60;;
76604;SDS011;65496;50.978;16.998;2023-02-12T00:10:53;3.25;;;2.95;;
76604;SDS011;65496;50.978;16.998;2023-02-12T00:13:19;3.28;;;2.95;;
76604;SDS011;65496;50.978;16.998;2023-02-12T00:15:45;3.33;;;2.60;;
76604;SDS011;65496;50.978;16.998;2023-02-12T00:18:11;3.22;;;2.58;;
76604;SDS011;65496;50.978;16.998;2023-02-12T00:20:37;3.95;;;3.55;;
76604;SDS011;65496;50.978;16.998;2023-02-12T00:23:04;3.25;;;2.90;;
76604;SDS011;65496;50.978;16.998;2023-02-12T00:25:31;3.50;;;3.13;;
76604;SDS011;65496;50.978;16.998;2023-02-12T00:27:57;3.88;;;3.15;;
76604;SDS011;65496;50.978;16.998;2023-02-12T00:30:24;3.40;;;3.10;;
76604;SDS011;65496;50.978;16.998;2023-02-12T00:32:50;3.45;;;2.95;;
76604;SDS011;65496;50.978;16.998;2023-02-12T00:35:16;3.38;;;2.70;;
76604;SDS011;65496;50.978;16.998;2023-02-12T00:37:42;3.88;;;3.13;;
76604;SDS011;65496;50.978;16.998;2023-02-12T00:40:08;3.40;;;2.88;;
76604;SDS011;65496;50.978;16.998;2023-02-12T00:42:34;3.47;;;2.60;;
76604;SDS011;65496;50.978;16.998;2023-02-12T00:45:00;3.60;;;2.70;;
76604;SDS011;65496;50.978;16.998;2023-02-12T00:47:26;3.55;;;3.15;;
76604;SDS011;65496;50.978;16.998;2023-02-12T00:49:52;3.65;;;2.60;;
76604;SDS011;65496;50.978;16.998;2023-02-12T00:52:18;4.13;;;3.13;;
76604;SDS011;65496;50.978;16.998;2023-02-12T00:54:44;3.17;;;2.83;;
76604;SDS011;65496;50.978;16.998;2023-02-12T00:57:10;3.60;;;3.03;;
76604;SDS011;65496;50.978;16.998;2023-02-12T00:59:36;3.72;;;2.88;;
76604;SDS011;65496;50.978;16.998;2023-02-12T01:02:04;4.05;;;3.05;;
76604;SDS011;65496;50.978;16.998;2023-02-12T01:04:30;3.50;;;3.00;;
76604;SDS011;65496;50.978;16.998;2023-02-12T01:06:56;3.83;;;3.00;;
76604;SDS011;65496;50.978;16.998;2023-02-12T01:09:22;3.60;;;2.80;;
76604;SDS011;65496;50.978;16.998;2023-02-12T01:11:48;3.58;;;2.90;;
76604;SDS011;65496;50.978;16.998;2023-02-12T01:14:14;3.50;;;2.85;;
76604;SDS011;65496;50.978;16.998;2023-02-12T01:16:40;3.58;;;3.13;;
76604;SDS011;65496;50.978;16.998;2023-02-12T01:19:06;3.90;;;3.50;;
76604;SDS011;65496;50.978;16.998;2023-02-12T01:21:33;3.08;;;2.70;;
76604;SDS011;65496;50.978;16.998;2023-02-12T01:23:59;3.42;;;3.00;;
76604;SDS011;65496;50.978;16.998;2023-02-12T01:26:27;3.60;;;3.17;;
76604;SDS011;65496;50.978;16.998;2023-02-12T01:28:56;3.58;;;3.20;;
76604;SDS011;65496;50.978;16.998;2023-02-12T01:31:24;2.90;;;2.60;;
76604;SDS011;65496;50.978;16.998;2023-02-12T01:33:52;3.70;;;3.35;;
76604;SDS011;65496;50.978;16.998;2023-02-12T01:36:20;3.88;;;3.10;;
76604;SDS011;65496;50.978;16.998;2023-02-12T01:38:47;3.85;;;3.30;;
76604;SDS011;65496;50.978;16.998;2023-02-12T01:41:15;3.28;;;2.90;;
76604;SDS011;65496;50.978;16.998;2023-02-12T01:43:43;4.25;;;3.00;;
76604;SDS011;65496;50.978;16.998;2023-02-12T01:46:11;3.20;;;2.80;;
76604;SDS011;65496;50.978;16.998;2023-02-12T01:48:41;3.45;;;3.15;;
76604;SDS011;65496;50.978;16.998;2023-02-12T01:51:10;3.60;;;3.10;;
76604;SDS011;65496;50.978;16.998;2023-02-12T01:53:42;3.72;;;2.95;;
76604;SDS011;65496;50.978;16.998;2023-02-12T01:56:15;3.42;;;3.03;;
76604;SDS011;65496;50.978;16.998;2023-02-12T01:58:43;3.45;;;2.90;;
76604;SDS011;65496;50.978;16.998;2023-02-12T02:01:12;3.80;;;3.10;;
76604;SDS011;65496;50.978;16.998;2023-02-12T02:03:43;3.30;;;2.83;;
76604;SDS011;65496;50.978;16.998;2023-02-12T02:06:15;3.38;;;2.70;;
76604;SDS011;65496;50.978;16.998;2023-02-12T02:08:45;3.33;;;2.85;;
76604;SDS011;65496;50.978;16.998;2023-02-12T02:11:12;3.55;;;2.75;;
76604;SDS011;65496;50.978;16.998;2023-02-12T02:13:57;3.72;;;3.03;;
76604;SDS011;65496;50.978;16.998;2023-02-12T02:16:55;3.70;;;2.83;;
76604;SDS011;65496;50.978;16.998;2023-02-12T02:22:19;3.53;;;3.00;;
76604;SDS011;65496;50.978;16.998;2023-02-12T02:27:55;3.42;;;2.88;;
76604;SDS011;65496;50.978;16.998;2023-02-12T02:30:43;3.80;;;2.85;;
76604;SDS011;65496;50.978;16.998;2023-02-12T02:34:00;3.28;;;2.80;;
76604;SDS011;65496;50.978;16.998;2023-02-12T02:36:10;3.63;;;3.03;;
76604;SDS011;65496;50.978;16.998;2023-02-12T02:39:04;3.25;;;2.90;;
76604;SDS011;65496;50.978;16.998;2023-02-12T02:41:36;3.70;;;2.78;;
76604;SDS011;65496;50.978;16.998;2023-02-12T02:44:13;3.92;;;3.00;;
76604;SDS011;65496;50.978;16.998;2023-02-12T02:46:46;3.92;;;3.30;;
76604;SDS011;65496;50.978;16.998;2023-02-12T02:49:16;3.58;;;2.97;;
76604;SDS011;65496;50.978;16.998;2023-02-12T02:51:52;3.75;;;3.00;;
76604;SDS011;65496;50.978;16.998;2023-02-12T02:54:34;3.30;;;2.85;;
76604;SDS011;65496;50.978;16.998;2023-02-12T02:57:07;3.80;;;3.15;;
76604;SDS011;65496;50.978;16.998;2023-02-12T02:59:47;3.75;;;2.75;;
76604;SDS011;65496;50.978;16.998;2023-02-12T03:02:38;4.22;;;3.00;;
76604;SDS011;65496;50.978;16.998;2023-02-12T03:05:18;3.25;;;2.95;;
76604;SDS011;65496;50.978;16.998;2023-02-12T03:07:52;3.60;;;3.20;;
76604;SDS011;65496;50.978;16.998;2023-02-12T03:10:26;3.72;;;3.20;;
76604;SDS011;65496;50.978;16.998;2023-02-12T03:13:12;3.83;;;2.95;;
76604;SDS011;65496;50.978;16.998;2023-02-12T03:15:47;3.20;;;2.50;;
76604;SDS011;65496;50.978;16.998;2023-02-12T03:18:20;4.10;;;2.90;;
76604;SDS011;65496;50.978;16.998;2023-02-12T03:20:51;4.35;;;2.90;;
76604;SDS011;65496;50.978;16.998;2023-02-12T03:23:25;3.35;;;2.90;;
76604;SDS011;65496;50.978;16.998;2023-02-12T03:26:03;3.28;;;2.97;;
76604;SDS011;65496;50.978;16.998;2023-02-12T03:28:35;3.95;;;3.17;;
76604;SDS011;65496;50.978;16.998;2023-02-12T03:36:51;3.33;;;2.88;;
76604;SDS011;65496;50.978;16.998;2023-02-12T03:42:00;3.30;;;3.00;;
76604;SDS011;65496;50.978;16.998;2023-02-12T03:50:11;3.42;;;2.90;;
76604;SDS011;65496;50.978;16.998;2023-02-12T03:52:42;4.15;;;2.90;;
76604;SDS011;65496;50.978;16.998;2023-02-12T03:55:09;2.95;;;2.65;;
76604;SDS011;65496;50.978;16.998;2023-02-12T03:57:37;3.42;;;2.90;;
76604;SDS011;65496;50.978;16.998;2023-02-12T04:00:09;3.28;;;2.97;;
76604;SDS011;65496;50.978;16.998;2023-02-12T04:02:38;3.17;;;2.72;;
76604;SDS011;65496;50.978;16.998;2023-02-12T04:05:06;3.67;;;3.28;;
76604;SDS011;65496;50.978;16.998;2023-02-12T04:07:33;3.50;;;2.70;;
76604;SDS011;65496;50.978;16.998;2023-02-12T04:10:01;3.60;;;3.00;;
76604;SDS011;65496;50.978;16.998;2023-02-12T04:12:30;3.25;;;2.90;;
76604;SDS011;65496;50.978;16.998;2023-02-12T04:21:06;3.67;;;3.28;;
76604;SDS011;65496;50.978;16.998;2023-02-12T04:23:34;3.88;;;3.00;;
76604;SDS011;65496;50.978;16.998;2023-02-12T04:32:17;4.20;;;2.80;;
76604;SDS011;65496;50.978;16.998;2023-02-12T04:37:20;3.85;;;2.55;;
76604;SDS011;65496;50.978;16.998;2023-02-12T04:39:50;4.57;;;2.92;;
76604;SDS011;65496;50.978;16.998;2023-02-12T04:42:18;3.42;;;2.53;;
76604;SDS011;65496;50.978;16.998;2023-02-12T04:44:44;3.35;;;2.83;;
76604;SDS011;65496;50.978;16.998;2023-02-12T04:47:11;3.35;;;2.72;;
76604;SDS011;65496;50.978;16.998;2023-02-12T04:49:38;3.75;;;2.70;;
76604;SDS011;65496;50.978;16.998;2023-02-12T04:52:05;3.15;;;2.70;;
76604;SDS011;65496;50.978;16.998;2023-02-12T04:54:31;3.28;;;2.83;;
76604;SDS011;65496;50.978;16.998;2023-02-12T04:56:58;3.45;;;3.08;;
76604;SDS011;65496;50.978;16.998;2023-02-12T04:59:24;3.92;;;3.13;;
76604;SDS011;65496;50.978;16.998;2023-02-12T05:01:50;3.22;;;2.92;;
76604;SDS011;65496;50.978;16.998;2023-02-12T05:04:16;3.70;;;2.92;;
76604;SDS011;65496;50.978;16.998;2023-02-12T05:06:43;3.40;;;3.10;;
76604;SDS011;65496;50.978;16.998;2023-02-12T05:09:19;3.83;;;2.95;;
76604;SDS011;65496;50.978;16.998;2023-02-12T05:11:46;3.50;;;3.20;;
76604;SDS011;65496;50.978;16.998;2023-02-12T05:14:12;3.75;;;3.10;;
76604;SDS011;65496;50.978;16.998;2023-02-12T05:16:38;3.80;;;2.88;;
76604;SDS011;65496;50.978;16.998;2023-02-12T05:19:04;3.55;;;3.05;;
76604;SDS011;65496;50.978;16.998;2023-02-12T05:21:30;4.07;;;3.00;;
76604;SDS011;65496;50.978;16.998;2023-02-12T05:23:56;3.55;;;2.85;;
76604;SDS011;65496;50.978;16.998;2023-02-12T05:26:22;3.53;;;3.15;;
76604;SDS011;65496;50.978;16.998;2023-02-12T05:28:48;3.95;;;3.20;;
76604;SDS011;65496;50.978;16.998;2023-02-12T05:31:17;3.42;;;2.63;;
76604;SDS011;65496;50.978;16.998;2023-02-12T05:33:45;3.50;;;3.00;;
76604;SDS011;65496;50.978;16.998;2023-02-12T05:36:13;3.40;;;3.10;;
76604;SDS011;65496;50.978;16.998;2023-02-12T05:38:42;4.95;;;3.08;;
76604;SDS011;65496;50.978;16.998;2023-02-12T05:41:09;3.42;;;2.58;;
76604;SDS011;65496;50.978;16.998;2023-02-12T05:43:40;3.95;;;3.55;;
76604;SDS011;65496;50.978;16.998;2023-02-12T05:46:07;3.72;;;2.97;;
76604;SDS011;65496;50.978;16.998;2023-02-12T05:48:34;3.58;;;3.13;;
76604;SDS011;65496;50.978;16.998;2023-02-12T05:51:23;3.42;;;3.13;;
76604;SDS011;65496;50.978;16.998;2023-02-12T05:53:51;3.28;;;2.55;;
76604;SDS011;65496;50.978;16.998;2023-02-12T05:56:23;3.00;;;2.58;;
76604;SDS011;65496;50.978;16.998;2023-02-12T05:58:54;3.90;;;3.13;;
76604;SDS011;65496;50.978;16.998;2023-02-12T06:01:28;2.80;;;2.50;;
76604;SDS011;65496;50.978;16.998;2023-02-12T06:03:57;4.50;;;3.38;;
76604;SDS011;65496;50.978;16.998;2023-02-12T06:06:24;3.38;;;2.95;;
76604;SDS011;65496;50.978;16.998;2023-02-12T06:08:51;3.78;;;3.20;;
76604;SDS011;65496;50.978;16.998;2023-02-12T06:11:17;3.85;;;3.00;;
76604;SDS011;65496;50.978;16.998;2023-02-12T06:13:45;3.40;;;3.10;;
76604;SDS011;65496;50.978;16.998;2023-02-12T06:16:22;3.78;;;2.60;;
76604;SDS011;65496;50.978;16.998;2023-02-12T06:18:50;3.95;;;3.30;;
76604;SDS011;65496;50.978;16.998;2023-02-12T06:21:18;3.65;;;3.28;;
76604;SDS011;65496;50.978;16.998;2023-02-12T06:23:45;3.78;;;2.88;;
76604;SDS011;65496;50.978;16.998;2023-02-12T06:26:11;3.28;;;2.80;;
76604;SDS011;65496;50.978;16.998;2023-02-12T06:28:37;3.60;;;3.13;;
76604;SDS011;65496;50.978;16.998;2023-02-12T06:31:04;4.05;;;3.00;;
76604;SDS011;65496;50.978;16.998;2023-02-12T06:33:30;4.32;;;3.10;;
76604;SDS011;65496;50.978;16.998;2023-02-12T06:35:56;3.78;;;3.38;;
76604;SDS011;65496;50.978;16.998;2023-02-12T06:38:22;4.13;;;3.00;;
76604;SDS011;65496;50.978;16.998;2023-02-12T06:40:48;4.22;;;3.00;;
76604;SDS011;65496;50.978;16.998;2023-02-12T06:43:14;4.30;;;3.53;;
76604;SDS011;65496;50.978;16.998;2023-02-12T06:45:40;4.35;;;3.50;;
76604;SDS011;65496;50.978;16.998;2023-02-12T06:48:06;3.80;;;3.40;;
76604;SDS011;65496;50.978;16.998;2023-02-12T06:50:32;3.78;;;3.38;;
76604;SDS011;65496;50.978;16.998;2023-02-12T06:52:58;4.05;;;2.80;;
76604;SDS011;65496;50.978;16.998;2023-02-12T06:55:24;3.78;;;3.00;;
76604;SDS011;65496;50.978;16.998;2023-02-12T06:57:50;3.30;;;2.88;;
76604;SDS011;65496;50.978;16.998;2023-02-12T07:00:17;3.28;;;2.97;;
76604;SDS011;65496;50.978;16.998;2023-02-12T07:02:43;4.35;;;3.00;;
76604;SDS011;65496;50.978;16.998;2023-02-12T07:05:09;3.50;;;2.85;;
76604;SDS011;65496;50.978;16.998;2023-02-12T07:07:35;3.85;;;3.08;;
76604;SDS011;65496;50.978;16.998;2023-02-12T07:10:02;4.05;;;2.90;;
76604;SDS011;65496;50.978;16.998;2023-02-12T07:12:28;3.75;;;2.97;;
76604;SDS011;65496;50.978;16.998;2023-02-12T07:14:54;3.58;;;3.22;;
76604;SDS011;65496;50.978;16.998;2023-02-12T07:17:20;3.53;;;2.80;;
76604;SDS011;65496;50.978;16.998;2023-02-12T07:19:46;3.80;;;3.30;;
76604;SDS011;65496;50.978;16.998;2023-02-12T07:22:12;3.15;;;2.72;;
76604;SDS011;65496;50.978;16.998;2023-02-12T07:24:38;3.97;;;3.05;;
76604;SDS011;65496;50.978;16.998;2023-02-12T07:27:04;3.85;;;3.30;;
76604;SDS011;65496;50.978;16.998;2023-02-12T07:29:30;3.67;;;3.10;;
76604;SDS011;65496;50.978;16.998;2023-02-12T07:31:56;3.92;;;3.33;;
76604;SDS011;65496;50.978;16.998;2023-02-12T07:34:22;3.92;;;3.53;;
76604;SDS011;65496;50.978;16.998;2023-02-12T07:36:48;3.45;;;3.13;;
76604;SDS011;65496;50.978;16.998;2023-02-12T07:39:14;4.20;;;3.72;;
76604;SDS011;65496;50.978;16.998;2023-02-12T07:41:40;4.13;;;2.85;;
76604;SDS011;65496;50.978;16.998;2023-02-12T07:44:07;4.18;;;3.78;;
76604;SDS011;65496;50.978;16.998;2023-02-12T07:46:44;4.07;;;2.92;;
76604;SDS011;65496;50.978;16.998;2023-02-12T07:49:13;4.32;;;3.08;;
76604;SDS011;65496;50.978;16.998;2023-02-12T07:51:41;3.42;;;2.80;;
76604;SDS011;65496;50.978;16.998;2023-02-12T07:54:08;3.50;;;3.20;;
76604;SDS011;65496;50.978;16.998;2023-02-12T07:56:35;4.80;;;3.58;;
76604;SDS011;65496;50.978;16.998;2023-02-12T07:59:04;4.13;;;3.42;;
76604;SDS011;65496;50.978;16.998;2023-02-12T08:01:38;4.45;;;3.55;;
76604;SDS011;65496;50.978;16.998;2023-02-12T08:04:13;4.45;;;3.53;;
76604;SDS011;65496;50.978;16.998;2023-02-12T08:06:41;3.88;;;3.35;;
76604;SDS011;65496;50.978;16.998;2023-02-12T08:09:10;4.05;;;3.40;;
76604;SDS011;65496;50.978;16.998;2023-02-12T08:11:39;3.70;;;3.17;;
76604;SDS011;65496;50.978;16.998;2023-02-12T08:14:06;4.45;;;3.63;;
76604;SDS011;65496;50.978;16.998;2023-02-12T08:16:35;3.95;;;3.42;;
76604;SDS011;65496;50.978;16.998;2023-02-12T08:19:03;4.25;;;3.22;;
76604;SDS011;65496;50.978;16.998;2023-02-12T08:21:29;4.28;;;3.45;;
76604;SDS011;65496;50.978;16.998;2023-02-12T08:23:57;4.53;;;3.10;;
76604;SDS011;65496;50.978;16.998;2023-02-12T08:26:24;3.85;;;3.13;;
76604;SDS011;65496;50.978;16.998;2023-02-12T08:29:12;3.72;;;3.28;;
76604;SDS011;65496;50.978;16.998;2023-02-12T08:31:43;3.75;;;3.08;;
76604;SDS011;65496;50.978;16.998;2023-02-12T08:34:18;3.97;;;3.55;;
76604;SDS011;65496;50.978;16.998;2023-02-12T08:36:46;3.63;;;3.20;;
76604;SDS011;65496;50.978;16.998;2023-02-12T08:39:14;4.07;;;3.33;;
76604;SDS011;65496;50.978;16.998;2023-02-12T08:41:41;4.28;;;3.17;;
76604;SDS011;65496;50.978;16.998;2023-02-12T08:44:08;4.10;;;3.70;;
76604;SDS011;65496;50.978;16.998;2023-02-12T08:46:36;3.70;;;3.03;;
76604;SDS011;65496;50.978;16.998;2023-02-12T08:49:05;4.18;;;3.20;;
76604;SDS011;65496;50.978;16.998;2023-02-12T08:51:37;4.70;;;3.20;;
76604;SDS011;65496;50.978;16.998;2023-02-12T08:54:06;4.13;;;3.70;;
76604;SDS011;65496;50.978;16.998;2023-02-12T08:56:35;3.67;;;3.25;;
76604;SDS011;65496;50.978;16.998;2023-02-12T08:59:03;4.43;;;3.60;;
76604;SDS011;65496;50.978;16.998;2023-02-12T09:01:34;4.88;;;3.55;;
76604;SDS011;65496;50.978;16.998;2023-02-12T09:04:20;3.95;;;3.40;;
76604;SDS011;65496;50.978;16.998;2023-02-12T09:06:48;4.43;;;3.53;;
76604;SDS011;65496;50.978;16.998;2023-02-12T09:09:15;5.60;;;3.50;;
76604;SDS011;65496;50.978;16.998;2023-02-12T09:11:41;4.32;;;3.72;;
76604;SDS011;65496;50.978;16.998;2023-02-12T09:14:09;4.32;;;3.20;;
76604;SDS011;65496;50.978;16.998;2023-02-12T09:16:38;5.38;;;3.20;;
76604;SDS011;65496;50.978;16.998;2023-02-12T09:19:05;4.95;;;4.45;;
76604;SDS011;65496;50.978;16.998;2023-02-12T09:21:32;3.90;;;2.97;;
76604;SDS011;65496;50.978;16.998;2023-02-12T09:23:59;3.72;;;3.22;;
76604;SDS011;65496;50.978;16.998;2023-02-12T09:26:26;4.32;;;3.40;;
76604;SDS011;65496;50.978;16.998;2023-02-12T09:28:53;4.60;;;3.70;;
76604;SDS011;65496;50.978;16.998;2023-02-12T09:31:21;4.90;;;3.42;;
76604;SDS011;65496;50.978;16.998;2023-02-12T09:34:00;3.90;;;3.35;;
76604;SDS011;65496;50.978;16.998;2023-02-12T09:36:28;4.30;;;3.00;;
76604;SDS011;65496;50.978;16.998;2023-02-12T09:38:54;4.72;;;3.63;;
76604;SDS011;65496;50.978;16.998;2023-02-12T09:46:55;4.70;;;3.72;;
76604;SDS011;65496;50.978;16.998;2023-02-12T09:52:11;4.95;;;3.55;;
76604;SDS011;65496;50.978;16.998;2023-02-12T09:54:44;4.63;;;3.60;;
76604;SDS011;65496;50.978;16.998;2023-02-12T09:57:15;4.47;;;3.80;;
76604;SDS011;65496;50.978;16.998;2023-02-12T10:00:07;4.22;;;3.55;;
76604;SDS011;65496;50.978;16.998;2023-02-12T10:02:37;5.57;;;4.38;;
76604;SDS011;65496;50.978;16.998;2023-02-12T10:05:08;3.58;;;3.20;;
76604;SDS011;65496;50.978;16.998;2023-02-12T10:13:06;5.22;;;3.67;;
76604;SDS011;65496;50.978;16.998;2023-02-12T10:18:32;4.95;;;3.70;;
76604;SDS011;65496;50.978;16.998;2023-02-12T10:26:36;6.53;;;4.10;;
76604;SDS011;65496;50.978;16.998;2023-02-12T10:29:19;4.53;;;4.13;;
76604;SDS011;65496;50.978;16.998;2023-02-12T10:31:49;4.20;;;3.28;;
76604;SDS011;65496;50.978;16.998;2023-02-12T10:34:24;4.88;;;3.60;;
76604;SDS011;65496;50.978;16.998;2023-02-12T10:36:57;3.88;;;3.22;;
76604;SDS011;65496;50.978;16.998;2023-02-12T10:39:34;4.97;;;3.92;;
76604;SDS011;65496;50.978;16.998;2023-02-12T10:42:11;4.38;;;3.92;;
76604;SDS011;65496;50.978;16.998;2023-02-12T10:44:46;3.88;;;3.45;;
76604;SDS011;65496;50.978;16.998;2023-02-12T10:47:14;5.43;;;3.85;;
76604;SDS011;65496;50.978;16.998;2023-02-12T10:49:45;4.18;;;3.75;;
76604;SDS011;65496;50.978;16.998;2023-02-12T10:54:59;4.13;;;3.22;;
76604;SDS011;65496;50.978;16.998;2023-02-12T10:57:27;4.47;;;3.22;;
76604;SDS011;65496;50.978;16.998;2023-02-12T10:59:55;5.25;;;3.95;;
76604;SDS011;65496;50.978;16.998;2023-02-12T11:02:38;4.47;;;3.70;;
76604;SDS011;65496;50.978;16.998;2023-02-12T11:08:01;3.90;;;3.30;;
76604;SDS011;65496;50.978;16.998;2023-02-12T11:10:45;3.95;;;3.40;;
76604;SDS011;65496;50.978;16.998;2023-02-12T11:13:21;4.47;;;3.42;;
76604;SDS011;65496;50.978;16.998;2023-02-12T11:15:50;4.72;;;3.63;;
76604;SDS011;65496;50.978;16.998;2023-02-12T11:18:35;4.70;;;3.65;;
76604;SDS011;65496;50.978;16.998;2023-02-12T11:21:11;5.25;;;3.67;;
76604;SDS011;65496;50.978;16.998;2023-02-12T11:23:41;4.15;;;3.75;;
76604;SDS011;65496;50.978;16.998;2023-02-12T11:31:21;4.20;;;3.72;;
76604;SDS011;65496;50.978;16.998;2023-02-12T11:34:13;4.63;;;3.22;;
76604;SDS011;65496;50.978;16.998;2023-02-12T11:36:44;4.32;;;3.28;;
76604;SDS011;65496;50.978;16.998;2023-02-12T11:42:04;3.97;;;3.40;;
76604;SDS011;65496;50.978;16.998;2023-02-12T11:44:40;4.72;;;3.85;;
76604;SDS011;65496;50.978;16.998;2023-02-12T11:47:24;5.40;;;3.60;;
76604;SDS011;65496;50.978;16.998;2023-02-12T11:49:54;4.45;;;3.67;;
76604;SDS011;65496;50.978;16.998;2023-02-12T11:52:24;4.60;;;3.50;;
76604;SDS011;65496;50.978;16.998;2023-02-12T11:54:58;3.78;;;3.33;;
76604;SDS011;65496;50.978;16.998;2023-02-12T11:57:38;4.30;;;3.42;;
76604;SDS011;65496;50.978;16.998;2023-02-12T12:00:16;4.45;;;3.92;;
76604;SDS011;65496;50.978;16.998;2023-02-12T12:03:08;4.88;;;3.67;;
76604;SDS011;65496;50.978;16.998;2023-02-12T12:05:43;3.88;;;3.17;;
76604;SDS011;65496;50.978;16.998;2023-02-12T12:08:34;4.30;;;3.50;;
76604;SDS011;65496;50.978;16.998;2023-02-12T12:11:49;4.55;;;3.17;;
76604;SDS011;65496;50.978;16.998;2023-02-12T12:14:03;4.72;;;3.33;;
76604;SDS011;65496;50.978;16.998;2023-02-12T12:16:48;5.40;;;3.40;;
76604;SDS011;65496;50.978;16.998;2023-02-12T12:25:25;4.00;;;3.45;;
76604;SDS011;65496;50.978;16.998;2023-02-12T12:30:37;4.00;;;3.15;;
76604;SDS011;65496;50.978;16.998;2023-02-12T12:39:05;4.20;;;3.35;;
76604;SDS011;65496;50.978;16.998;2023-02-12T12:53:03;4.53;;;3.30;;
76604;SDS011;65496;50.978;16.998;2023-02-12T12:58:26;4.70;;;3.83;;
76604;SDS011;65496;50.978;16.998;2023-02-12T13:14:43;4.57;;;3.28;;
76604;SDS011;65496;50.978;16.998;2023-02-12T13:17:21;4.20;;;3.80;;
76604;SDS011;65496;50.978;16.998;2023-02-12T13:28:01;3.83;;;3.00;;
76604;SDS011;65496;50.978;16.998;2023-02-12T13:30:30;3.78;;;2.95;;
76604;SDS011;65496;50.978;16.998;2023-02-12T13:33:09;4.15;;;3.42;;
76604;SDS011;65496;50.978;16.998;2023-02-12T13:35:42;4.70;;;3.45;;
76604;SDS011;65496;50.978;16.998;2023-02-12T13:38:17;4.80;;;3.72;;
76604;SDS011;65496;50.978;16.998;2023-02-12T13:40:46;4.15;;;2.90;;
76604;SDS011;65496;50.978;16.998;2023-02-12T13:51:14;5.38;;;3.65;;
76604;SDS011;65496;50.978;16.998;2023-02-12T13:59:02;3.97;;;3.17;;
76604;SDS011;65496;50.978;16.998;2023-02-12T14:09:21;5.00;;;3.95;;
76604;SDS011;65496;50.978;16.998;2023-02-12T14:11:56;4.18;;;2.97;;
76604;SDS011;65496;50.978;16.998;2023-02-12T14:14:26;4.07;;;3.20;;
76604;SDS011;65496;50.978;16.998;2023-02-12T14:17:14;5.00;;;3.10;;
76604;SDS011;65496;50.978;16.998;2023-02-12T14:19:53;3.67;;;3.10;;
76604;SDS011;65496;50.978;16.998;2023-02-12T14:24:52;4.88;;;3.20;;
76604;SDS011;65496;50.978;16.998;2023-02-12T14:27:24;4.85;;;2.90;;
76604;SDS011;65496;50.978;16.998;2023-02-12T14:35:48;3.60;;;2.60;;
76604;SDS011;65496;50.978;16.998;2023-02-12T14:41:22;4.30;;;2.78;;
76604;SDS011;65496;50.978;16.998;2023-02-12T14:47:01;4.25;;;2.63;;
76604;SDS011;65496;50.978;16.998;2023-02-12T14:49:35;3.75;;;2.85;;
76604;SDS011;65496;50.978;16.998;2023-02-12T14:54:53;4.25;;;2.97;;
76604;SDS011;65496;50.978;16.998;2023-02-12T14:57:32;3.45;;;2.80;;
76604;SDS011;65496;50.978;16.998;2023-02-12T15:02:46;3.83;;;2.80;;
76604;SDS011;65496;50.978;16.998;2023-02-12T15:05:28;4.32;;;2.60;;
76604;SDS011;65496;50.978;16.998;2023-02-12T15:08:23;3.72;;;2.97;;
76604;SDS011;65496;50.978;16.998;2023-02-12T15:13:54;4.45;;;3.22;;
76604;SDS011;65496;50.978;16.998;2023-02-12T15:19:03;3.90;;;2.83;;
76604;SDS011;65496;50.978;16.998;2023-02-12T15:21:38;3.92;;;2.85;;
76604;SDS011;65496;50.978;16.998;2023-02-12T15:24:07;5.65;;;3.30;;
76604;SDS011;65496;50.978;16.998;2023-02-12T15:26:36;4.30;;;2.63;;
76604;SDS011;65496;50.978;16.998;2023-02-12T15:29:13;3.50;;;2.72;;
76604;SDS011;65496;50.978;16.998;2023-02-12T15:31:49;3.35;;;2.70;;
76604;SDS011;65496;50.978;16.998;2023-02-12T15:34:19;4.18;;;3.17;;
76604;SDS011;65496;50.978;16.998;2023-02-12T15:36:47;4.40;;;2.72;;
76604;SDS011;65496;50.978;16.998;2023-02-12T15:39:16;3.60;;;2.92;;
76604;SDS011;65496;50.978;16.998;2023-02-12T15:41:45;3.42;;;2.42;;
76604;SDS011;65496;50.978;16.998;2023-02-12T15:49:39;4.35;;;2.90;;
76604;SDS011;65496;50.978;16.998;2023-02-12T15:52:08;3.58;;;2.95;;
76604;SDS011;65496;50.978;16.998;2023-02-12T15:54:42;3.60;;;2.78;;
76604;SDS011;65496;50.978;16.998;2023-02-12T15:57:11;3.85;;;2.90;;
76604;SDS011;65496;50.978;16.998;2023-02-12T15:59:47;4.03;;;3.10;;
76604;SDS011;65496;50.978;16.998;2023-02-12T16:02:20;3.90;;;2.50;;
76604;SDS011;65496;50.978;16.998;2023-02-12T16:04:55;3.75;;;2.80;;
76604;SDS011;65496;50.978;16.998;2023-02-12T16:07:22;4.25;;;2.72;;
76604;SDS011;65496;50.978;16.998;2023-02-12T16:09:50;4.45;;;3.35;;
76604;SDS011;65496;50.978;16.998;2023-02-12T16:12:19;5.43;;;3.35;;
76604;SDS011;65496;50.978;16.998;2023-02-12T16:14:52;4.43;;;3.22;;
76604;SDS011;65496;50.978;16.998;2023-02-12T16:17:35;4.68;;;2.85;;
76604;SDS011;65496;50.978;16.998;2023-02-12T16:22:37;5.68;;;3.38;;
76604;SDS011;65496;50.978;16.998;2023-02-12T16:25:19;5.20;;;3.35;;
76604;SDS011;65496;50.978;16.998;2023-02-12T16:28:28;4.80;;;3.13;;
76604;SDS011;65496;50.978;16.998;2023-02-12T16:30:44;4.93;;;3.35;;
76604;SDS011;65496;50.978;16.998;2023-02-12T16:36:10;5.43;;;3.38;;
76604;SDS011;65496;50.978;16.998;2023-02-12T16:41:25;4.85;;;3.38;;
76604;SDS011;65496;50.978;16.998;2023-02-12T16:46:25;4.65;;;3.55;;
76604;SDS011;65496;50.978;16.998;2023-02-12T16:48:53;3.95;;;3.47;;
76604;SDS011;65496;50.978;16.998;2023-02-12T16:51:23;3.97;;;3.08;;
76604;SDS011;65496;50.978;16.998;2023-02-12T16:53:56;4.82;;;3.60;;
76604;SDS011;65496;50.978;16.998;2023-02-12T16:56:24;5.65;;;3.83;;
76604;SDS011;65496;50.978;16.998;2023-02-12T16:58:57;4.68;;;3.42;;
76604;SDS011;65496;50.978;16.998;2023-02-12T17:01:29;6.18;;;3.78;;
76604;SDS011;65496;50.978;16.998;2023-02-12T17:03:58;5.90;;;3.85;;
76604;SDS011;65496;50.978;16.998;2023-02-12T17:06:27;5.80;;;3.55;;
76604;SDS011;65496;50.978;16.998;2023-02-12T17:08:54;5.38;;;3.83;;
76604;SDS011;65496;50.978;16.998;2023-02-12T17:11:22;5.70;;;4.05;;
76604;SDS011;65496;50.978;16.998;2023-02-12T17:13:50;5.20;;;3.75;;
76604;SDS011;65496;50.978;16.998;2023-02-12T17:16:17;5.43;;;3.90;;
76604;SDS011;65496;50.978;16.998;2023-02-12T17:18:44;4.40;;;3.88;;
76604;SDS011;65496;50.978;16.998;2023-02-12T17:23:48;4.95;;;3.50;;
76604;SDS011;65496;50.978;16.998;2023-02-12T17:26:14;4.32;;;3.38;;
76604;SDS011;65496;50.978;16.998;2023-02-12T17:28:40;5.68;;;4.05;;
76604;SDS011;65496;50.978;16.998;2023-02-12T17:31:07;5.90;;;4.10;;
76604;SDS011;65496;50.978;16.998;2023-02-12T17:33:33;6.95;;;4.45;;
76604;SDS011;65496;50.978;16.998;2023-02-12T17:36:00;5.53;;;3.90;;
76604;SDS011;65496;50.978;16.998;2023-02-12T17:38:26;6.15;;;4.68;;
76604;SDS011;65496;50.978;16.998;2023-02-12T17:40:52;5.80;;;3.85;;
76604;SDS011;65496;50.978;16.998;2023-02-12T17:43:20;5.07;;;4.20;;
76604;SDS011;65496;50.978;16.998;2023-02-12T17:45:46;5.00;;;3.70;;
76604;SDS011;65496;50.978;16.998;2023-02-12T17:48:12;5.88;;;4.00;;
76604;SDS011;65496;50.978;16.998;2023-02-12T17:50:41;6.28;;;4.80;;
76604;SDS011;65496;50.978;16.998;2023-02-12T17:53:08;6.10;;;4.50;;
76604;SDS011;65496;50.978;16.998;2023-02-12T17:55:37;5.88;;;4.63;;
76604;SDS011;65496;50.978;16.998;2023-02-12T17:58:04;5.07;;;3.78;;
76604;SDS011;65496;50.978;16.998;2023-02-12T18:00:31;6.80;;;5.05;;